createdAt,value
2019-01-23T00:02:21.899Z,78.51
2019-01-23T00:04:49.342Z,77.62
2019-01-23T00:07:16.774Z,77.00
2019-01-23T00:09:44.183Z,76.79
2019-01-23T00:12:11.603Z,78.25
2019-01-23T00:14:39.579Z,80.13
2019-01-23T00:17:06.947Z,79.79
2019-01-23T00:19:34.354Z,78.75
2019-01-23T00:22:01.799Z,79.35
2019-01-23T00:24:29.200Z,79.17
2019-01-23T00:26:56.600Z,78.09
2019-01-23T00:29:26.979Z,78.13
2019-01-23T00:31:54.351Z,77.74
2019-01-23T00:34:21.753Z,77.76
2019-01-23T00:36:49.839Z,77.91
2019-01-23T00:39:17.262Z,78.08
2019-01-23T00:41:44.658Z,78.35
2019-01-23T00:44:12.090Z,79.27
2019-01-23T00:46:39.615Z,78.87
2019-01-23T00:49:07.034Z,78.14
2019-01-23T00:51:34.497Z,78.38
2019-01-23T00:54:02.221Z,77.63
2019-01-23T00:56:29.623Z,78.67
2019-01-23T00:58:57.099Z,79.84
2019-01-23T01:01:24.499Z,78.52
2019-01-23T01:03:51.880Z,78.09
2019-01-23T01:06:19.342Z,78.43
2019-01-23T01:08:46.739Z,78.97
2019-01-23T01:11:14.166Z,78.35
2019-01-23T01:13:41.651Z,78.11
2019-01-23T01:16:09.094Z,79.37
2019-01-23T01:18:36.559Z,77.83
2019-01-23T01:21:04.099Z,78.54
2019-01-23T01:23:31.516Z,77.40
2019-01-23T01:25:58.915Z,77.77
2019-01-23T01:28:26.360Z,78.11
2019-01-23T01:30:54.101Z,77.57
2019-01-23T01:33:21.504Z,78.90
2019-01-23T01:35:48.933Z,78.23
2019-01-23T01:38:16.319Z,77.41
2019-01-23T01:40:44.118Z,76.97
2019-01-23T01:43:11.560Z,77.58
2019-01-23T01:45:38.963Z,77.60
2019-01-23T01:48:06.370Z,77.79
2019-01-23T01:50:33.839Z,77.33
2019-01-23T01:53:01.231Z,76.80
2019-01-23T01:55:28.622Z,77.69
2019-01-23T01:57:59.479Z,78.07
2019-01-23T02:00:27.019Z,78.15
2019-01-23T02:02:54.451Z,77.96
2019-01-23T02:05:21.912Z,77.74
2019-01-23T02:07:49.419Z,78.12
2019-01-23T02:10:18.967Z,78.55
2019-01-23T02:12:46.540Z,77.05
2019-01-23T02:15:14.358Z,78.00
2019-01-23T02:17:41.954Z,78.81
2019-01-23T02:20:15.497Z,78.45
2019-01-23T02:22:42.879Z,79.25
2019-01-23T02:25:10.473Z,77.92
2019-01-23T02:27:38.139Z,78.26
2019-01-23T02:30:07.002Z,77.66
2019-01-23T02:32:34.432Z,78.57
2019-01-23T02:35:01.921Z,78.32
2019-01-23T02:37:29.360Z,78.58
2019-01-23T02:39:56.782Z,78.68
2019-01-23T02:42:24.264Z,78.45
2019-01-23T02:44:51.677Z,77.72
2019-01-23T02:47:19.114Z,77.84
2019-01-23T02:49:46.600Z,77.23
2019-01-23T02:52:13.993Z,77.82
2019-01-23T02:54:41.399Z,78.92
2019-01-23T02:57:08.832Z,78.42
2019-01-23T02:59:36.469Z,78.35
2019-01-23T03:02:04.520Z,78.43
2019-01-23T03:04:31.947Z,79.65
2019-01-23T03:06:59.339Z,78.06
2019-01-23T03:09:26.740Z,77.79
2019-01-23T03:11:54.195Z,77.88
2019-01-23T03:14:21.641Z,77.10
2019-01-23T03:19:24.155Z,76.93
2019-01-23T03:21:51.563Z,77.52
2019-01-23T03:24:19.495Z,78.47
2019-01-23T03:26:47.092Z,78.74
2019-01-23T03:29:14.829Z,78.32
2019-01-23T03:31:42.436Z,77.43
2019-01-23T03:34:10.819Z,76.65
2019-01-23T03:36:38.227Z,78.30
2019-01-23T03:39:06.856Z,79.01
2019-01-23T03:41:34.252Z,79.94
2019-01-23T03:44:01.592Z,79.63
2019-01-23T03:46:28.992Z,78.72
2019-01-23T03:48:56.379Z,78.50
2019-01-23T03:51:23.753Z,78.98
2019-01-23T03:53:51.178Z,78.83
2019-01-23T03:56:18.598Z,79.52
2019-01-23T03:58:46.093Z,79.11
2019-01-23T04:01:13.456Z,77.36
2019-01-23T04:03:40.843Z,77.12
2019-01-23T04:06:08.217Z,76.54
2019-01-23T04:08:35.616Z,76.64
2019-01-23T04:11:02.977Z,75.82
2019-01-23T04:13:30.376Z,76.36
2019-01-23T04:15:57.816Z,76.06
2019-01-23T04:18:25.234Z,76.04
2019-01-23T04:20:52.601Z,75.76
2019-01-23T04:23:19.995Z,76.58
2019-01-23T04:25:48.573Z,76.32
2019-01-23T04:28:16.022Z,76.21
2019-01-23T04:30:43.462Z,76.56
2019-01-23T04:33:10.847Z,76.69
2019-01-23T04:35:38.226Z,76.65
2019-01-23T04:38:05.656Z,76.75
2019-01-23T04:40:33.036Z,77.04
2019-01-23T04:43:00.459Z,77.16
2019-01-23T04:45:27.805Z,77.12
2019-01-23T04:47:55.176Z,77.93
2019-01-23T04:50:22.547Z,77.42
2019-01-23T04:53:04.663Z,76.31
2019-01-23T04:55:32.833Z,76.64
2019-01-23T04:58:00.241Z,77.07
2019-01-23T05:00:29.412Z,76.52
2019-01-23T05:02:57.656Z,76.85
2019-01-23T05:05:25.016Z,77.46
2019-01-23T05:07:52.414Z,77.56
2019-01-23T05:10:19.750Z,77.73
2019-01-23T05:12:47.176Z,77.81
2019-01-23T05:15:14.549Z,77.42
2019-01-23T05:17:42.258Z,77.01
2019-01-23T05:20:10.431Z,76.73
2019-01-23T05:22:37.843Z,77.12
2019-01-23T05:25:05.857Z,77.22
2019-01-23T05:27:33.213Z,76.78
2019-01-23T05:30:00.615Z,77.13
2019-01-23T05:32:27.993Z,77.19
2019-01-23T05:34:55.364Z,77.07
2019-01-23T05:37:22.738Z,77.82
2019-01-23T05:39:50.114Z,78.97
2019-01-23T05:42:17.516Z,79.07
2019-01-23T05:44:44.898Z,78.60
2019-01-23T05:47:12.288Z,78.84
2019-01-23T05:49:39.695Z,78.99
2019-01-23T05:52:07.134Z,78.42
2019-01-23T05:54:34.532Z,77.55
2019-01-23T05:57:01.918Z,77.70
2019-01-23T05:59:29.283Z,77.92
2019-01-23T06:01:56.700Z,77.17
2019-01-23T06:04:24.035Z,77.08
2019-01-23T06:06:51.375Z,77.25
2019-01-23T06:09:18.764Z,78.30
2019-01-23T06:11:46.166Z,77.52
2019-01-23T06:14:13.518Z,77.57
2019-01-23T06:16:40.969Z,77.58
2019-01-23T06:19:08.436Z,77.31
2019-01-23T06:21:35.848Z,77.10
2019-01-23T06:24:03.294Z,77.06
2019-01-23T06:26:30.655Z,77.28
2019-01-23T06:28:58.220Z,78.26
2019-01-23T06:31:26.024Z,79.15
2019-01-23T06:33:53.640Z,79.18
2019-01-23T06:36:21.220Z,78.83
2019-01-23T06:38:48.561Z,78.78
2019-01-23T06:41:15.993Z,78.10
2019-01-23T06:43:47.638Z,77.79
2019-01-23T06:46:14.995Z,78.50
2019-01-23T06:48:42.416Z,77.92
2019-01-23T06:51:09.815Z,78.37
2019-01-23T06:53:37.247Z,79.09
2019-01-23T06:56:04.632Z,78.74
2019-01-23T06:58:32.026Z,78.17
2019-01-23T07:01:00.063Z,78.17
2019-01-23T07:03:27.612Z,78.23
2019-01-23T07:05:54.997Z,79.59
2019-01-23T07:08:22.352Z,79.75
2019-01-23T07:10:49.719Z,78.24
2019-01-23T07:13:17.148Z,78.87
2019-01-23T07:15:44.544Z,78.95
2019-01-23T07:18:11.955Z,78.75
2019-01-23T07:20:39.333Z,78.48
2019-01-23T07:23:06.664Z,77.00
2019-01-23T07:25:34.115Z,78.39
2019-01-23T07:28:01.494Z,79.27
2019-01-23T07:30:38.054Z,80.05
2019-01-23T07:33:05.533Z,79.70
2019-01-23T07:35:32.902Z,78.90
2019-01-23T07:38:00.293Z,78.89
2019-01-23T07:40:27.615Z,78.87
2019-01-23T07:42:55.138Z,78.81
2019-01-23T07:45:22.612Z,78.64
2019-01-23T07:47:49.974Z,77.92
2019-01-23T07:50:20.579Z,77.58
2019-01-23T07:52:48.194Z,77.73
2019-01-23T07:55:18.175Z,78.90
2019-01-23T07:57:45.554Z,78.25
2019-01-23T08:00:17.699Z,77.47
2019-01-23T08:02:45.419Z,75.90
2019-01-23T08:05:19.404Z,75.90
2019-01-23T08:07:44.175Z,77.11
2019-01-23T08:10:13.460Z,76.31
2019-01-23T08:12:40.995Z,76.72
2019-01-23T08:15:17.142Z,76.48
2019-01-23T08:17:44.519Z,76.87
2019-01-23T08:20:14.321Z,75.67
2019-01-23T08:22:41.714Z,75.67
2019-01-23T08:25:09.375Z,75.34
2019-01-23T08:27:39.477Z,75.57
2019-01-23T08:30:07.027Z,76.27
2019-01-23T08:32:34.524Z,76.66
2019-01-23T08:35:01.918Z,77.14
2019-01-23T08:37:29.329Z,77.77
2019-01-23T08:39:56.694Z,76.65
2019-01-23T08:42:24.016Z,75.61
2019-01-23T08:44:51.422Z,75.61
2019-01-23T08:47:18.820Z,76.93
2019-01-23T08:49:46.179Z,76.93
2019-01-23T08:52:13.587Z,77.02
2019-01-23T08:54:40.935Z,77.05
2019-01-23T08:57:08.300Z,76.11
2019-01-23T08:59:35.680Z,76.82
2019-01-23T09:02:04.098Z,76.42
2019-01-23T09:04:31.483Z,76.81
2019-01-23T09:06:58.849Z,76.81
2019-01-23T09:09:26.238Z,77.33
2019-01-23T09:11:53.665Z,77.22
2019-01-23T09:14:21.047Z,75.65
2019-01-23T09:16:48.444Z,75.65
2019-01-23T09:19:15.893Z,76.00
2019-01-23T09:21:43.243Z,75.83
2019-01-23T09:24:10.685Z,74.89
2019-01-23T09:26:38.070Z,74.52
2019-01-23T09:29:05.441Z,74.11
2019-01-23T09:32:09.514Z,72.77
2019-01-23T09:35:13.335Z,72.77
2019-01-23T09:38:22.326Z,72.04
2019-01-23T09:41:15.433Z,71.64
2019-01-23T09:44:09.868Z,71.66
2019-01-23T09:47:15.948Z,70.52
2019-01-23T09:50:23.497Z,70.52
2019-01-23T09:53:25.036Z,70.87
2019-01-23T09:55:52.853Z,70.87
2019-01-23T09:58:20.228Z,70.21
2019-01-23T10:00:47.696Z,70.99
2019-01-23T10:03:15.068Z,70.47
2019-01-23T10:05:42.474Z,70.07
2019-01-23T10:08:09.845Z,70.07
2019-01-23T10:10:37.242Z,70.39
2019-01-23T10:13:04.743Z,70.30
2019-01-23T10:15:46.882Z,70.30
2019-01-23T10:18:14.253Z,70.11
2019-01-23T10:20:41.684Z,70.99
2019-01-23T10:23:09.092Z,70.03
2019-01-23T10:25:36.421Z,70.03
2019-01-23T10:28:03.798Z,69.07
2019-01-23T10:30:31.233Z,68.77
2019-01-23T10:32:58.590Z,68.63
2019-01-23T10:35:26.024Z,68.63
2019-01-23T10:37:53.438Z,67.97
2019-01-23T10:40:20.809Z,68.83
2019-01-23T10:42:48.280Z,69.79
2019-01-23T10:45:15.777Z,68.05
2019-01-23T10:47:43.691Z,68.63
2019-01-23T10:50:12.007Z,67.20
2019-01-23T10:52:39.354Z,67.20
2019-01-23T10:55:06.911Z,66.51
2019-01-23T10:57:34.299Z,66.51
2019-01-23T11:00:01.925Z,66.07
2019-01-23T11:02:29.329Z,66.02
2019-01-23T11:04:56.713Z,65.66
2019-01-23T11:07:24.086Z,65.04
2019-01-23T11:09:51.490Z,64.61
2019-01-23T11:12:18.885Z,65.50
2019-01-23T11:14:46.313Z,66.26
2019-01-23T11:17:13.700Z,66.11
2019-01-23T11:19:41.119Z,65.75
2019-01-23T11:22:08.529Z,64.97
2019-01-23T11:24:36.744Z,64.22
2019-01-23T11:27:04.235Z,64.07
2019-01-23T11:29:31.674Z,64.68
2019-01-23T11:31:59.094Z,63.63
2019-01-23T11:34:26.519Z,63.87
2019-01-23T11:36:53.954Z,62.25
2019-01-23T11:39:21.392Z,63.34
2019-01-23T11:41:48.793Z,63.87
2019-01-23T11:44:16.154Z,63.14
2019-01-23T11:46:43.569Z,61.91
2019-01-23T11:49:11.013Z,60.87
2019-01-23T11:51:38.461Z,62.15
2019-01-23T11:54:05.906Z,63.56
2019-01-23T11:56:33.419Z,62.86
2019-01-23T11:59:00.937Z,61.34
2019-01-23T12:01:28.560Z,61.22
2019-01-23T12:03:55.944Z,62.46
2019-01-23T12:06:23.320Z,62.29
2019-01-23T12:08:50.904Z,62.08
2019-01-23T12:11:18.481Z,61.16
2019-01-23T12:13:45.997Z,61.04
2019-01-23T12:16:13.604Z,61.69
2019-01-23T12:18:41.074Z,61.55
2019-01-23T12:21:08.473Z,60.16
2019-01-23T12:23:35.830Z,59.76
2019-01-23T12:26:03.993Z,60.86
2019-01-23T12:28:31.334Z,62.27
2019-01-23T12:30:58.852Z,61.15
2019-01-23T12:33:26.300Z,59.54
2019-01-23T12:35:54.262Z,60.19
2019-01-23T12:38:22.005Z,59.75
2019-01-23T12:40:49.533Z,59.15
2019-01-23T12:43:17.018Z,58.92
2019-01-23T12:45:44.461Z,60.35
2019-01-23T12:48:11.840Z,59.77
2019-01-23T12:50:39.382Z,59.08
2019-01-23T12:53:06.774Z,60.16
2019-01-23T12:55:34.196Z,59.20
2019-01-23T12:58:02.800Z,59.22
2019-01-23T13:00:30.597Z,60.10
2019-01-23T13:02:58.540Z,58.04
2019-01-23T13:05:26.640Z,57.99
2019-01-23T13:07:54.101Z,58.53
2019-01-23T13:10:21.678Z,59.11
2019-01-23T13:12:50.504Z,59.44
2019-01-23T13:15:20.195Z,58.69
2019-01-23T13:17:47.566Z,58.75
2019-01-23T13:20:15.777Z,58.97
2019-01-23T13:22:43.308Z,59.36
2019-01-23T13:25:13.723Z,60.10
2019-01-23T13:27:41.202Z,60.89
2019-01-23T13:30:10.964Z,60.83
2019-01-23T13:32:38.524Z,60.38
2019-01-23T13:35:07.713Z,60.38
2019-01-23T13:37:35.098Z,61.88
2019-01-23T13:40:03.825Z,61.41
2019-01-23T13:42:31.978Z,63.29
2019-01-23T13:44:59.394Z,63.29
2019-01-23T13:47:26.877Z,63.66
2019-01-23T13:49:54.313Z,63.97
2019-01-23T13:52:22.073Z,63.97
2019-01-23T13:54:49.502Z,64.66
2019-01-23T13:57:17.051Z,64.03
2019-01-23T13:59:44.473Z,64.59
2019-01-23T14:02:12.693Z,64.22
2019-01-23T14:04:40.216Z,64.96
2019-01-23T14:07:07.673Z,65.18
2019-01-23T14:09:35.160Z,65.67
2019-01-23T14:12:02.558Z,65.55
2019-01-23T14:14:29.964Z,65.73
2019-01-23T14:16:57.435Z,64.90
2019-01-23T14:19:24.853Z,65.31
2019-01-23T14:21:52.238Z,65.58
2019-01-23T14:24:19.727Z,65.46
2019-01-23T14:26:47.139Z,65.58
2019-01-23T14:29:14.569Z,65.61
2019-01-23T14:31:42.064Z,65.15
2019-01-23T14:34:09.481Z,65.20
2019-01-23T14:36:36.941Z,65.05
2019-01-23T14:39:07.058Z,64.64
2019-01-23T14:41:34.454Z,65.38
2019-01-23T14:44:01.829Z,65.40
2019-01-23T14:46:29.213Z,66.08
2019-01-23T14:48:56.638Z,66.15
2019-01-23T14:51:24.043Z,66.58
2019-01-23T14:53:51.461Z,66.06
2019-01-23T14:56:18.867Z,66.03
2019-01-23T14:58:46.315Z,66.30
2019-01-23T15:01:13.812Z,66.67
2019-01-23T15:03:41.234Z,66.67
2019-01-23T15:06:09.364Z,66.53
2019-01-23T15:08:36.816Z,67.53
2019-01-23T15:11:04.320Z,67.00
2019-01-23T15:13:31.760Z,66.40
2019-01-23T15:15:59.156Z,67.27
2019-01-23T15:18:26.581Z,66.81
2019-01-23T15:20:54.055Z,67.03
2019-01-23T15:23:21.620Z,66.75
2019-01-23T15:25:49.119Z,67.02
2019-01-23T15:28:16.504Z,66.75
2019-01-23T15:30:44.290Z,66.89
2019-01-23T15:33:11.792Z,67.56
2019-01-23T15:35:39.259Z,67.45
2019-01-23T15:38:06.713Z,68.26
2019-01-23T15:40:36.240Z,68.37
2019-01-23T15:43:03.733Z,67.96
2019-01-23T15:45:31.279Z,68.06
2019-01-23T15:47:58.664Z,68.47
2019-01-23T15:50:26.361Z,68.37
2019-01-23T15:52:53.857Z,68.15
2019-01-23T15:55:22.861Z,67.73
2019-01-23T15:57:50.377Z,68.53
2019-01-23T16:00:26.045Z,68.44
2019-01-23T16:02:53.446Z,68.44
2019-01-23T16:05:20.899Z,67.92
2019-01-23T16:07:48.470Z,68.20
2019-01-23T16:10:18.209Z,68.20
2019-01-23T16:12:45.660Z,68.77
2019-01-23T16:15:14.044Z,68.62
2019-01-23T16:17:41.716Z,68.62
2019-01-23T16:20:09.934Z,68.78
2019-01-23T16:22:37.522Z,68.82
2019-01-23T16:25:05.998Z,68.96
2019-01-23T16:27:33.517Z,68.25
2019-01-23T16:30:01.180Z,69.02
2019-01-23T16:32:31.630Z,69.31
2019-01-23T16:34:58.475Z,69.31
2019-01-23T16:37:25.940Z,69.51
2019-01-23T16:39:53.493Z,69.22
2019-01-23T16:42:21.007Z,69.42
2019-01-23T16:44:50.469Z,69.49
2019-01-23T16:47:17.996Z,70.48
2019-01-23T16:49:45.550Z,71.84
2019-01-23T16:52:13.052Z,71.53
2019-01-23T16:54:40.590Z,71.53
2019-01-23T16:57:08.251Z,71.04
2019-01-23T16:59:35.779Z,70.94
2019-01-23T17:02:03.459Z,70.18
2019-01-23T17:04:30.980Z,70.97
2019-01-23T17:06:58.585Z,70.97
2019-01-23T17:09:26.314Z,70.92
2019-01-23T17:11:53.882Z,70.88
2019-01-23T17:14:21.578Z,70.88
2019-01-23T17:16:49.315Z,72.26
2019-01-23T17:19:16.802Z,72.45
2019-01-23T17:21:44.406Z,72.35
2019-01-23T17:24:11.919Z,72.33
2019-01-23T17:26:39.571Z,72.64
2019-01-23T17:29:07.152Z,72.82
2019-01-23T17:31:34.717Z,73.72
2019-01-23T17:34:02.208Z,73.72
2019-01-23T17:36:29.937Z,73.65
2019-01-23T17:38:57.473Z,73.56
2019-01-23T17:41:25.018Z,72.98
2019-01-23T17:43:53.071Z,73.67
2019-01-23T17:46:20.775Z,73.80
2019-01-23T17:48:48.838Z,73.97
2019-01-23T17:51:17.228Z,73.63
2019-01-23T17:53:45.009Z,73.39
2019-01-23T17:56:13.020Z,73.82
2019-01-23T17:58:40.811Z,74.42
2019-01-23T18:01:10.686Z,74.46
2019-01-23T18:03:38.592Z,75.08
2019-01-23T18:06:06.657Z,74.68
2019-01-23T18:08:34.699Z,75.56
2019-01-23T18:11:02.624Z,75.83
2019-01-23T18:13:30.532Z,75.83
2019-01-23T18:16:03.857Z,75.46
2019-01-23T18:18:31.557Z,75.37
2019-01-23T18:20:59.656Z,75.37
2019-01-23T18:23:27.488Z,75.93
2019-01-23T18:25:55.209Z,76.46
2019-01-23T18:28:23.137Z,76.01
2019-01-23T18:31:06.024Z,76.01
2019-01-23T18:33:53.184Z,76.13
2019-01-23T18:37:05.436Z,75.07
2019-01-23T18:40:07.459Z,75.07
2019-01-23T18:43:15.189Z,76.77
2019-01-23T18:46:28.966Z,76.74
2019-01-23T18:49:42.665Z,75.95
2019-01-23T18:52:12.173Z,77.10
2019-01-23T18:54:43.056Z,77.10
2019-01-23T18:57:17.011Z,77.27
2019-01-23T18:59:45.457Z,77.27
2019-01-23T19:02:13.442Z,77.39
2019-01-23T19:04:41.433Z,76.62
2019-01-23T19:07:09.754Z,76.62
2019-01-23T19:09:38.202Z,77.11
2019-01-23T19:12:06.395Z,77.11
2019-01-23T19:14:34.507Z,76.44
2019-01-23T19:17:02.596Z,76.19
2019-01-23T19:19:33.539Z,76.14
2019-01-23T19:22:01.565Z,76.64
2019-01-23T19:24:29.587Z,76.80
2019-01-23T19:26:57.603Z,76.80
2019-01-23T19:29:25.649Z,77.53
2019-01-23T19:31:53.615Z,77.06
2019-01-23T19:34:22.104Z,77.88
2019-01-23T19:36:50.141Z,76.68
2019-01-23T19:39:18.171Z,77.44
2019-01-23T19:41:46.201Z,77.56
2019-01-23T19:44:14.256Z,77.56
2019-01-23T19:46:42.657Z,77.86
2019-01-23T19:49:10.664Z,78.03
2019-01-23T19:51:38.744Z,77.43
2019-01-23T19:54:06.776Z,77.77
2019-01-23T19:56:34.966Z,76.69
2019-01-23T19:59:03.217Z,77.60
2019-01-23T20:01:31.309Z,76.50
2019-01-23T20:04:00.548Z,77.49
2019-01-23T20:06:28.491Z,77.58
2019-01-23T20:08:56.473Z,77.65
2019-01-23T20:11:24.888Z,77.17
2019-01-23T20:13:52.952Z,77.93
2019-01-23T20:16:21.018Z,77.34
2019-01-23T20:18:49.016Z,77.44
2019-01-23T20:21:17.078Z,76.67
2019-01-23T20:23:45.417Z,77.19
2019-01-23T20:26:13.507Z,77.06
2019-01-23T20:28:41.629Z,77.17
2019-01-23T20:31:09.535Z,76.80
2019-01-23T20:33:37.574Z,77.32
2019-01-23T20:36:05.627Z,76.10
2019-01-23T20:38:34.352Z,76.60
2019-01-23T20:41:02.375Z,77.04
2019-01-23T20:43:30.333Z,77.23
2019-01-23T20:45:58.751Z,76.76
2019-01-23T20:48:26.771Z,76.00
2019-01-23T20:50:54.700Z,75.93
2019-01-23T20:53:22.649Z,76.37
2019-01-23T20:55:50.551Z,76.90
2019-01-23T20:58:18.423Z,76.51
2019-01-23T21:00:46.446Z,76.51
2019-01-23T21:03:14.406Z,76.93
2019-01-23T21:05:42.349Z,76.68
2019-01-23T21:08:10.398Z,76.77
2019-01-23T21:10:38.155Z,76.77
2019-01-23T21:13:05.940Z,75.78
2019-01-23T21:15:34.093Z,76.42
2019-01-23T21:18:03.438Z,76.52
2019-01-23T21:20:37.023Z,76.52
2019-01-23T21:23:05.668Z,76.39
2019-01-23T21:25:33.548Z,75.46
2019-01-23T21:28:01.407Z,76.78
2019-01-23T21:30:29.395Z,75.77
2019-01-23T21:32:57.076Z,76.29
2019-01-23T21:35:25.065Z,75.29
2019-01-23T21:37:52.977Z,75.30
2019-01-23T21:40:23.318Z,74.35
2019-01-23T21:42:51.013Z,74.49
2019-01-23T21:45:18.939Z,74.33
2019-01-23T21:47:47.437Z,74.35
2019-01-23T21:50:17.118Z,74.18
2019-01-23T21:52:51.845Z,74.18
2019-01-23T21:55:21.742Z,74.41
2019-01-23T21:57:49.453Z,75.57
2019-01-23T22:00:28.752Z,75.88
2019-01-23T22:02:57.797Z,76.29
2019-01-23T22:05:25.177Z,76.79
2019-01-23T22:07:52.782Z,76.45
2019-01-23T22:10:20.202Z,75.99
2019-01-23T22:12:47.737Z,76.53
2019-01-23T22:15:16.815Z,76.53
2019-01-23T22:17:44.176Z,76.79
2019-01-23T22:20:14.089Z,76.07
2019-01-23T22:22:41.464Z,76.15
2019-01-23T22:25:10.131Z,75.77
2019-01-23T22:27:37.591Z,76.87
2019-01-23T22:30:08.124Z,78.68
2019-01-23T22:32:35.577Z,78.84
2019-01-23T22:35:04.114Z,79.21
2019-01-23T22:37:31.509Z,77.78
2019-01-23T22:39:58.906Z,77.72
2019-01-23T22:42:26.311Z,77.83
2019-01-23T22:44:53.705Z,78.37
2019-01-23T22:47:21.040Z,77.51
2019-01-23T22:49:49.715Z,76.75
2019-01-23T22:52:17.728Z,79.27
2019-01-23T22:54:45.107Z,80.15
2019-01-23T22:57:13.146Z,80.15
2019-01-23T22:59:40.513Z,80.20
2019-01-23T23:02:07.908Z,79.97
2019-01-23T23:04:35.328Z,79.61
2019-01-23T23:07:02.787Z,78.72
2019-01-23T23:09:30.698Z,80.29
2019-01-23T23:11:58.064Z,80.39
2019-01-23T23:14:25.442Z,78.91
2019-01-23T23:16:52.878Z,77.22
2019-01-23T23:19:20.279Z,77.47
2019-01-23T23:21:47.667Z,77.11
2019-01-23T23:24:15.092Z,76.70
2019-01-23T23:26:42.490Z,76.66
2019-01-23T23:29:09.887Z,76.64
2019-01-23T23:31:37.293Z,77.87
2019-01-23T23:34:09.944Z,76.92
2019-01-23T23:36:34.200Z,77.71
2019-01-23T23:39:01.570Z,79.31
2019-01-23T23:41:28.974Z,79.86
2019-01-23T23:43:56.389Z,80.00
2019-01-23T23:46:23.752Z,79.65
2019-01-23T23:48:51.135Z,79.55
2019-01-23T23:51:18.537Z,79.52
2019-01-23T23:53:45.929Z,80.00
2019-01-23T23:56:13.409Z,80.08
2019-01-23T23:58:40.776Z,79.78
